createdAt,value
2018-05-04T00:02:40.096Z,18.10
2018-05-04T00:08:45.417Z,18.00
2018-05-04T00:14:49.436Z,18.00
2018-05-04T00:20:52.717Z,18.00
2018-05-04T00:26:56.784Z,18.00
2018-05-04T00:33:00.804Z,18.00
2018-05-04T00:39:04.080Z,18.00
2018-05-04T00:45:07.359Z,17.90
2018-05-04T00:51:10.635Z,17.90
2018-05-04T00:57:13.912Z,17.90
2018-05-04T01:03:17.188Z,17.90
2018-05-04T01:09:21.206Z,17.90
2018-05-04T01:15:24.484Z,17.90
2018-05-04T01:21:28.520Z,17.90
2018-05-04T01:27:31.803Z,17.90
2018-05-04T01:33:35.845Z,17.90
2018-05-04T01:39:39.138Z,17.90
2018-05-04T01:45:42.425Z,18.00
2018-05-04T01:51:45.701Z,18.00
2018-05-04T01:57:49.726Z,17.80
2018-05-04T02:03:53.003Z,17.80
2018-05-04T02:09:56.280Z,17.80
2018-05-04T02:15:59.552Z,17.80
2018-05-04T02:22:02.837Z,17.80
2018-05-04T02:28:06.109Z,17.80
2018-05-04T02:34:09.398Z,17.80
2018-05-04T02:40:12.685Z,17.70
2018-05-04T02:46:16.695Z,17.70
2018-05-04T02:52:19.975Z,17.70
2018-05-04T02:58:23.260Z,17.70
2018-05-04T03:04:26.539Z,17.70
2018-05-04T03:10:29.812Z,17.60
2018-05-04T03:16:33.083Z,17.60
2018-05-04T03:22:37.115Z,17.60
2018-05-04T03:28:40.400Z,17.50
2018-05-04T03:34:44.436Z,17.50
2018-05-04T03:40:47.712Z,17.50
2018-05-04T03:46:51.741Z,17.50
2018-05-04T03:52:55.027Z,17.50
2018-05-04T03:59:16.298Z,17.50
2018-05-04T04:05:19.579Z,17.50
2018-05-04T04:11:22.865Z,17.50
2018-05-04T04:17:26.226Z,17.50
2018-05-04T04:23:30.247Z,17.60
2018-05-04T04:29:33.536Z,17.50
2018-05-04T04:35:37.554Z,17.60
2018-05-04T04:41:40.855Z,17.60
2018-05-04T04:47:44.148Z,17.70
2018-05-04T04:53:47.427Z,17.70
2018-05-04T04:59:50.715Z,17.70
2018-05-04T05:05:54.007Z,17.70
2018-05-04T05:11:57.280Z,17.70
2018-05-04T05:18:01.295Z,17.70
2018-05-04T05:24:04.580Z,17.70
2018-05-04T05:30:08.623Z,17.80
2018-05-04T05:36:11.992Z,17.70
2018-05-04T05:42:16.005Z,17.80
2018-05-04T05:48:19.285Z,17.80
2018-05-04T05:54:22.565Z,17.80
2018-05-04T06:00:25.848Z,17.80
2018-05-04T06:06:29.129Z,17.90
2018-05-04T06:12:32.424Z,17.90
2018-05-04T06:18:35.785Z,17.90
2018-05-04T06:24:39.080Z,17.90
2018-05-04T06:30:43.104Z,18.00
2018-05-04T06:36:46.385Z,18.00
2018-05-04T06:42:49.663Z,18.10
2018-05-04T06:48:52.961Z,18.10
2018-05-04T06:54:56.243Z,18.10
2018-05-04T07:01:00.266Z,18.00
2018-05-04T07:07:04.298Z,18.00
2018-05-04T07:13:07.591Z,18.00
2018-05-04T07:19:11.222Z,18.00
2018-05-04T07:25:15.301Z,18.10
2018-05-04T07:31:18.583Z,18.10
2018-05-04T07:37:22.605Z,18.20
2018-05-04T07:43:25.899Z,18.20
2018-05-04T07:49:29.926Z,18.10
2018-05-04T07:55:34.049Z,18.10
2018-05-04T08:01:37.345Z,18.10
2018-05-04T08:07:40.638Z,18.00
2018-05-04T08:13:43.913Z,17.90
2018-05-04T08:19:47.194Z,17.90
2018-05-04T08:25:51.208Z,17.70
2018-05-04T08:31:54.508Z,17.70
2018-05-04T08:37:58.528Z,17.30
2018-05-04T08:44:01.994Z,17.30
2018-05-04T08:50:06.806Z,17.30
2018-05-04T08:56:10.833Z,17.40
2018-05-04T09:02:14.129Z,17.40
2018-05-04T09:08:17.412Z,17.40
2018-05-04T09:14:20.700Z,17.40
2018-05-04T09:20:24.722Z,17.40
2018-05-04T09:31:55.707Z,17.20
2018-05-04T09:38:00.485Z,17.10
2018-05-04T09:44:05.251Z,17.10
2018-05-04T09:50:08.544Z,17.10
2018-05-04T09:56:12.640Z,16.90
2018-05-04T10:02:16.628Z,17.00
2018-05-04T10:08:19.903Z,17.00
2018-05-04T10:21:09.682Z,17.40
2018-05-04T10:27:12.965Z,17.50
2018-05-04T10:33:16.983Z,17.60
2018-05-04T10:39:20.263Z,17.60
2018-05-04T10:45:23.541Z,17.70
2018-05-04T10:51:26.841Z,17.70
2018-05-04T10:57:30.178Z,17.80
2018-05-04T11:03:33.482Z,17.90
2018-05-04T11:09:36.791Z,18.00
2018-05-04T11:15:40.093Z,17.90
2018-05-04T11:21:43.387Z,18.00
2018-05-04T11:27:46.699Z,18.00
2018-05-04T11:33:49.999Z,18.10
2018-05-04T11:39:54.035Z,18.10
2018-05-04T11:45:58.803Z,17.80
2018-05-04T11:52:02.105Z,17.80
2018-05-04T11:58:05.404Z,17.50
2018-05-04T12:04:08.705Z,17.60
2018-05-04T12:10:12.005Z,17.80
2018-05-04T12:16:15.306Z,17.90
2018-05-04T12:22:18.587Z,18.10
2018-05-04T12:28:21.909Z,18.20
2018-05-04T12:34:25.212Z,18.30
2018-05-04T12:40:29.259Z,18.40
2018-05-04T12:46:33.320Z,18.40
2018-05-04T12:52:36.623Z,18.50
2018-05-04T12:58:39.943Z,18.50
2018-05-04T13:04:43.977Z,18.60
2018-05-04T13:10:47.262Z,18.60
2018-05-04T13:16:50.553Z,18.70
2018-05-04T13:22:53.840Z,18.70
2018-05-04T13:28:57.897Z,18.80
2018-05-04T13:35:01.929Z,18.80
2018-05-04T13:41:05.203Z,18.80
2018-05-04T13:47:09.236Z,18.80
2018-05-04T13:53:12.535Z,18.80
2018-05-04T13:59:15.823Z,18.80
2018-05-04T14:05:19.114Z,18.80
2018-05-04T14:11:23.201Z,18.80
2018-05-04T14:17:26.481Z,18.90
2018-05-04T14:23:29.756Z,18.80
2018-05-04T14:29:33.040Z,18.90
2018-05-04T14:35:36.331Z,18.90
2018-05-04T14:41:39.645Z,18.90
2018-05-04T14:47:42.961Z,18.90
2018-05-04T14:53:46.989Z,18.90
2018-05-04T14:59:50.278Z,18.80
2018-05-04T15:05:54.329Z,18.90
2018-05-04T15:11:58.392Z,18.80
2018-05-04T15:18:01.682Z,18.80
2018-05-04T15:24:04.988Z,18.70
2018-05-04T15:30:09.037Z,18.70
2018-05-04T15:36:12.336Z,18.60
2018-05-04T15:42:15.645Z,18.60
2018-05-04T15:48:24.537Z,18.60
2018-05-04T15:54:28.589Z,18.60
2018-05-04T16:00:31.944Z,18.50
2018-05-04T16:06:35.979Z,18.50
2018-05-04T16:12:39.288Z,18.50
2018-05-04T16:18:42.602Z,18.50
2018-05-04T16:24:46.646Z,18.50
2018-05-04T16:30:49.942Z,18.50
2018-05-04T16:36:53.227Z,18.50
2018-05-04T16:42:56.519Z,18.50
2018-05-04T16:49:06.031Z,18.40
2018-05-04T16:55:09.367Z,18.40
2018-05-04T17:01:12.664Z,18.40
2018-05-04T17:07:15.956Z,18.40
2018-05-04T17:13:19.243Z,18.50
2018-05-04T17:19:22.537Z,18.60
2018-05-04T17:25:26.573Z,18.80
2018-05-04T17:31:29.881Z,18.80
2018-05-04T17:37:33.168Z,18.90
2018-05-04T17:43:36.475Z,19.00
2018-05-04T17:49:39.796Z,19.10
2018-05-04T17:55:43.114Z,19.10
2018-05-04T18:01:46.423Z,19.20
2018-05-04T18:07:49.718Z,19.20
2018-05-04T18:13:53.004Z,19.20
2018-05-04T18:19:56.289Z,19.30
2018-05-04T18:26:00.323Z,19.30
2018-05-04T18:32:03.611Z,19.30
2018-05-04T18:38:06.919Z,19.30
2018-05-04T18:44:10.234Z,19.40
2018-05-04T18:50:13.531Z,19.30
2018-05-04T18:56:16.838Z,19.40
2018-05-04T19:02:25.799Z,19.40
2018-05-04T19:08:29.835Z,19.40
2018-05-04T19:14:33.201Z,19.40
2018-05-04T19:20:36.449Z,19.40
2018-05-04T19:26:39.782Z,19.40
2018-05-04T19:32:43.869Z,19.50
2018-05-04T19:38:47.899Z,19.50
2018-05-04T19:44:51.180Z,19.50
2018-05-04T19:50:55.213Z,19.40
2018-05-04T19:56:58.490Z,19.30
2018-05-04T20:03:02.525Z,19.20
2018-05-04T20:09:06.539Z,19.20
2018-05-04T20:15:09.830Z,19.20
2018-05-04T20:21:13.115Z,19.10
2018-05-04T20:27:17.147Z,19.00
2018-05-04T20:33:20.426Z,19.00
2018-05-04T20:39:24.462Z,18.90
2018-05-04T20:45:27.739Z,18.90
2018-05-04T20:51:31.827Z,18.90
2018-05-04T20:57:35.116Z,18.90
2018-05-04T21:03:38.565Z,18.90
2018-05-04T21:09:41.926Z,18.90
2018-05-04T21:15:45.252Z,18.90
2018-05-04T21:21:48.552Z,18.80
2018-05-04T21:27:51.835Z,18.80
2018-05-04T21:33:55.128Z,18.80
2018-05-04T21:39:59.159Z,18.70
2018-05-04T21:46:02.451Z,18.70
2018-05-04T21:52:05.769Z,18.80
2018-05-04T21:58:09.093Z,18.70
2018-05-04T22:04:12.383Z,18.70
2018-05-04T22:10:16.406Z,18.80
2018-05-04T22:16:19.697Z,18.70
2018-05-04T22:22:23.733Z,18.80
2018-05-04T22:28:27.024Z,18.80
2018-05-04T22:34:30.312Z,18.80
2018-05-04T22:40:34.347Z,18.80
2018-05-04T22:52:47.079Z,18.80
2018-05-04T22:58:50.371Z,18.90
2018-05-04T23:04:53.651Z,18.90
2018-05-04T23:10:57.677Z,19.00
2018-05-04T23:17:00.957Z,19.00
2018-05-04T23:23:04.991Z,19.00
2018-05-04T23:29:08.278Z,19.00
2018-05-04T23:35:11.567Z,18.90
2018-05-04T23:41:14.856Z,18.90
2018-05-04T23:47:18.144Z,18.80
2018-05-04T23:53:21.419Z,18.90
2018-05-04T23:59:24.706Z,18.80
